createdAt,value
2023-04-03T00:00:51.456Z,47.38
2023-04-03T00:03:19.155Z,47.46
2023-04-03T00:05:47.021Z,47.18
2023-04-03T00:08:13.855Z,47.25
2023-04-03T00:10:41.000Z,47.16
2023-04-03T00:13:07.984Z,47.20
2023-04-03T00:15:35.463Z,47.36
2023-04-03T00:18:02.977Z,47.29
2023-04-03T00:20:30.062Z,47.00
2023-04-03T00:22:56.833Z,47.19
2023-04-03T00:25:23.974Z,47.30
2023-04-03T00:27:50.857Z,47.36
2023-04-03T00:30:18.886Z,47.34
2023-04-03T00:32:45.691Z,47.24
2023-04-03T00:35:12.807Z,47.23
2023-04-03T00:37:39.648Z,47.20
2023-04-03T00:40:07.576Z,47.54
2023-04-03T00:42:34.350Z,47.48
2023-04-03T00:45:01.887Z,47.10
2023-04-03T00:47:28.691Z,47.41
2023-04-03T00:49:56.168Z,47.52
2023-04-03T00:52:24.791Z,47.32
2023-04-03T00:54:52.411Z,47.31
2023-04-03T00:57:19.250Z,47.31
2023-04-03T00:59:49.643Z,47.10
2023-04-03T01:02:16.598Z,47.31
2023-04-03T01:04:44.220Z,47.71
2023-04-03T01:07:17.216Z,47.83
2023-04-03T01:09:44.340Z,47.29
2023-04-03T01:12:20.705Z,47.59
2023-04-03T01:14:49.543Z,47.44
2023-04-03T01:17:25.796Z,47.26
2023-04-03T01:20:13.411Z,47.57
2023-04-03T01:23:01.066Z,47.42
2023-04-03T01:25:28.330Z,47.26
2023-04-03T01:27:55.072Z,47.21
2023-04-03T01:30:22.725Z,47.55
2023-04-03T01:32:49.581Z,47.60
2023-04-03T01:35:16.666Z,47.48
2023-04-03T01:37:43.447Z,47.70
2023-04-03T01:40:10.834Z,47.34
2023-04-03T01:42:37.591Z,47.55
2023-04-03T01:45:04.989Z,47.59
2023-04-03T01:47:31.858Z,47.54
2023-04-03T01:49:59.022Z,47.66
2023-04-03T01:52:25.843Z,47.60
2023-04-03T01:54:52.889Z,47.55
2023-04-03T01:57:19.649Z,47.63
2023-04-03T01:59:46.805Z,47.49
2023-04-03T02:02:15.618Z,47.48
2023-04-03T02:04:42.749Z,47.56
2023-04-03T02:07:09.587Z,47.45
2023-04-03T02:09:37.248Z,47.38
2023-04-03T02:12:04.025Z,47.46
2023-04-03T02:14:31.114Z,47.43
2023-04-03T02:16:57.955Z,47.61
2023-04-03T02:19:25.140Z,47.19
2023-04-03T02:21:51.903Z,47.67
2023-04-03T02:24:18.933Z,47.53
2023-04-03T02:26:45.801Z,47.49
2023-04-03T02:29:12.770Z,47.67
2023-04-03T02:31:39.570Z,47.38
2023-04-03T02:34:06.826Z,47.36
2023-04-03T02:36:33.616Z,47.52
2023-04-03T02:39:00.654Z,47.49
2023-04-03T02:41:34.587Z,47.75
2023-04-03T02:44:02.775Z,47.51
2023-04-03T02:46:29.664Z,47.34
2023-04-03T02:48:56.766Z,47.31
2023-04-03T02:51:24.048Z,47.29
2023-04-03T02:53:51.607Z,47.26
2023-04-03T02:56:19.141Z,47.12
2023-04-03T02:58:46.231Z,47.15
2023-04-03T03:01:13.040Z,47.36
2023-04-03T03:03:40.099Z,47.09
2023-04-03T03:06:08.780Z,46.89
2023-04-03T03:08:35.979Z,46.96
2023-04-03T03:11:02.957Z,46.98
2023-04-03T03:13:30.219Z,47.22
2023-04-03T03:15:56.994Z,47.13
2023-04-03T03:18:24.152Z,47.16
2023-04-03T03:20:54.691Z,47.12
2023-04-03T03:23:22.289Z,47.24
2023-04-03T03:25:49.034Z,46.99
2023-04-03T03:28:16.104Z,46.91
2023-04-03T03:30:42.886Z,46.89
2023-04-03T03:33:09.933Z,47.05
2023-04-03T03:35:37.286Z,46.76
2023-04-03T03:38:04.565Z,47.02
2023-04-03T03:40:31.356Z,46.71
2023-04-03T03:42:58.417Z,47.04
2023-04-03T03:45:25.878Z,46.75
2023-04-03T03:47:52.957Z,46.87
2023-04-03T03:50:19.732Z,46.66
2023-04-03T03:52:47.093Z,46.60
2023-04-03T03:55:13.995Z,46.69
2023-04-03T03:57:41.029Z,46.77
2023-04-03T04:00:08.405Z,46.88
2023-04-03T04:02:35.622Z,46.88
2023-04-03T04:05:02.719Z,46.52
2023-04-03T04:07:30.341Z,46.74
2023-04-03T04:09:57.075Z,46.73
2023-04-03T04:12:24.157Z,46.71
2023-04-03T04:14:50.902Z,46.51
2023-04-03T04:17:17.966Z,46.62
2023-04-03T04:19:44.731Z,46.60
2023-04-03T04:22:11.759Z,46.62
2023-04-03T04:24:39.682Z,46.60
2023-04-03T04:27:06.975Z,46.47
2023-04-03T04:29:36.745Z,46.72
2023-04-03T04:32:04.601Z,46.43
2023-04-03T04:34:31.559Z,46.49
2023-04-03T04:36:58.814Z,46.65
2023-04-03T04:39:25.639Z,46.44
2023-04-03T04:41:52.739Z,46.48
2023-04-03T04:44:19.908Z,46.31
2023-04-03T04:46:46.987Z,46.29
2023-04-03T04:49:13.710Z,46.69
2023-04-03T04:51:51.119Z,46.82
2023-04-03T04:54:18.704Z,46.54
2023-04-03T04:56:45.934Z,46.67
2023-04-03T04:59:12.761Z,46.42
2023-04-03T05:01:39.843Z,46.76
2023-04-03T05:04:06.612Z,46.71
2023-04-03T05:06:33.980Z,46.42
2023-04-03T05:09:01.064Z,46.70
2023-04-03T05:11:28.114Z,46.71
2023-04-03T05:13:54.952Z,46.83
2023-04-03T05:16:22.005Z,46.52
2023-04-03T05:18:48.766Z,46.33
2023-04-03T05:21:15.903Z,46.52
2023-04-03T05:23:42.640Z,46.65
2023-04-03T05:26:09.727Z,46.71
2023-04-03T05:28:36.882Z,46.45
2023-04-03T05:31:03.943Z,46.76
2023-04-03T05:33:30.695Z,46.34
2023-04-03T05:35:57.804Z,46.73
2023-04-03T05:38:24.675Z,46.81
2023-04-03T05:40:52.119Z,46.80
2023-04-03T05:43:18.907Z,46.51
2023-04-03T05:45:46.942Z,46.64
2023-04-03T05:48:14.041Z,46.68
2023-04-03T05:50:43.361Z,46.41
2023-04-03T05:53:21.979Z,46.58
2023-04-03T05:55:49.076Z,46.72
2023-04-03T05:58:16.115Z,46.93
2023-04-03T06:00:43.460Z,46.50
2023-04-03T06:03:10.390Z,46.88
2023-04-03T06:05:37.853Z,46.61
2023-04-03T06:08:04.791Z,46.46
2023-04-03T06:10:31.951Z,46.61
2023-04-03T06:12:58.789Z,46.73
2023-04-03T06:15:25.877Z,46.09
2023-04-03T06:17:52.819Z,46.36
2023-04-03T06:20:20.004Z,46.28
2023-04-03T06:22:46.932Z,46.09
2023-04-03T06:25:13.994Z,46.27
2023-04-03T06:27:41.136Z,46.19
2023-04-03T06:30:08.711Z,45.80
2023-04-03T06:32:35.512Z,45.94
2023-04-03T06:35:02.631Z,45.70
2023-04-03T06:37:30.795Z,45.63
2023-04-03T06:39:57.909Z,45.73
2023-04-03T06:42:24.979Z,45.75
2023-04-03T06:44:52.058Z,45.68
2023-04-03T06:47:18.875Z,45.50
2023-04-03T06:49:45.958Z,45.27
2023-04-03T06:52:15.502Z,44.78
2023-04-03T06:54:42.601Z,45.28
2023-04-03T06:57:09.513Z,45.28
2023-04-03T06:59:37.505Z,44.97
2023-04-03T07:02:04.838Z,45.19
2023-04-03T07:04:32.056Z,45.13
2023-04-03T07:06:58.845Z,44.91
2023-04-03T07:09:26.208Z,44.80
2023-04-03T07:11:52.952Z,44.69
2023-04-03T07:14:20.061Z,44.59
2023-04-03T07:16:46.794Z,44.87
2023-04-03T07:19:13.946Z,44.62
2023-04-03T07:21:41.671Z,44.80
2023-04-03T07:24:11.352Z,44.68
2023-04-03T07:26:42.047Z,44.61
2023-04-03T07:29:10.013Z,44.48
2023-04-03T07:31:36.870Z,44.75
2023-04-03T07:34:04.064Z,44.35
2023-04-03T07:36:34.300Z,44.48
2023-04-03T07:39:01.680Z,44.65
2023-04-03T07:41:29.678Z,43.83
2023-04-03T07:43:57.641Z,43.91
2023-04-03T07:46:24.778Z,44.06
2023-04-03T07:48:51.911Z,44.12
2023-04-03T07:51:18.812Z,43.97
2023-04-03T07:53:46.010Z,44.02
2023-04-03T07:56:12.901Z,44.00
2023-04-03T07:58:40.060Z,43.95
2023-04-03T08:01:07.166Z,43.62
2023-04-03T08:03:34.393Z,43.72
2023-04-03T08:06:06.053Z,43.62
2023-04-03T08:08:35.047Z,43.56
2023-04-03T08:11:03.406Z,43.45
2023-04-03T08:13:31.528Z,43.50
2023-04-03T08:16:00.081Z,43.30
2023-04-03T08:18:27.756Z,43.14
2023-04-03T08:20:54.644Z,43.19
2023-04-03T08:23:22.018Z,43.35
2023-04-03T08:25:48.795Z,43.43
2023-04-03T08:28:15.907Z,43.08
2023-04-03T08:30:43.492Z,43.29
2023-04-03T08:33:10.883Z,43.43
2023-04-03T08:35:41.821Z,43.17
2023-04-03T08:38:09.851Z,43.16
2023-04-03T08:40:36.672Z,43.15
2023-04-03T08:43:09.924Z,43.12
2023-04-03T08:45:52.647Z,42.70
2023-04-03T08:48:25.599Z,42.60
2023-04-03T08:50:58.141Z,42.24
2023-04-03T08:53:32.138Z,42.17
2023-04-03T08:55:59.108Z,41.57
2023-04-03T08:58:27.618Z,42.16
2023-04-03T09:01:03.674Z,41.69
2023-04-03T09:03:32.653Z,42.02
2023-04-03T09:06:04.650Z,43.52
2023-04-03T09:08:56.716Z,41.69
2023-04-03T09:11:49.771Z,42.80
2023-04-03T09:14:26.070Z,42.20
2023-04-03T09:16:55.957Z,41.90
2023-04-03T09:19:32.154Z,41.86
2023-04-03T09:22:08.757Z,41.26
2023-04-03T09:24:35.845Z,41.55
2023-04-03T09:27:05.410Z,41.18
2023-04-03T09:29:32.565Z,41.20
2023-04-03T09:32:03.621Z,40.73
2023-04-03T09:34:36.609Z,40.83
2023-04-03T09:37:09.860Z,40.64
2023-04-03T09:39:54.590Z,40.53
2023-04-03T09:42:23.679Z,40.27
2023-04-03T09:45:00.978Z,40.42
2023-04-03T09:47:34.192Z,40.28
2023-04-03T09:50:13.970Z,40.21
2023-04-03T09:52:45.012Z,39.94
2023-04-03T09:55:30.487Z,39.77
2023-04-03T09:58:02.187Z,39.76
2023-04-03T10:00:35.199Z,39.68
2023-04-03T10:03:01.964Z,39.11
2023-04-03T10:05:36.078Z,38.94
2023-04-03T10:08:14.912Z,38.43
2023-04-03T10:10:47.950Z,38.87
2023-04-03T10:13:21.476Z,38.31
2023-04-03T10:15:56.559Z,37.77
2023-04-03T10:18:46.531Z,38.65
2023-04-03T10:21:30.348Z,38.03
2023-04-03T10:24:09.771Z,38.21
2023-04-03T10:27:06.259Z,38.14
2023-04-03T10:29:32.981Z,37.52
2023-04-03T10:32:05.119Z,36.64
2023-04-03T10:34:38.299Z,37.27
2023-04-03T10:37:29.682Z,37.35
2023-04-03T10:40:33.396Z,37.61
2023-04-03T10:43:22.551Z,37.48
2023-04-03T10:46:03.460Z,37.27
2023-04-03T10:48:40.271Z,37.56
2023-04-03T10:51:35.121Z,37.22
2023-04-03T10:54:24.273Z,36.95
2023-04-03T10:57:01.328Z,37.07
2023-04-03T10:59:47.722Z,36.59
2023-04-03T11:02:20.340Z,36.44
2023-04-03T11:04:49.838Z,36.18
2023-04-03T11:07:32.777Z,36.18
2023-04-03T11:10:03.632Z,35.74
2023-04-03T11:12:46.050Z,35.94
2023-04-03T11:15:16.399Z,36.11
2023-04-03T11:17:51.865Z,36.23
2023-04-03T11:20:33.850Z,35.90
2023-04-03T11:23:06.777Z,36.14
2023-04-03T11:25:35.031Z,35.84
2023-04-03T11:28:03.617Z,35.42
2023-04-03T11:30:42.818Z,35.43
2023-04-03T11:33:27.998Z,35.80
2023-04-03T11:36:33.043Z,35.37
2023-04-03T11:39:03.478Z,35.33
2023-04-03T11:41:32.166Z,35.14
2023-04-03T11:44:00.317Z,34.83
2023-04-03T11:46:57.960Z,35.01
2023-04-03T11:50:04.076Z,34.93
2023-04-03T11:52:43.824Z,35.26
2023-04-03T11:55:21.193Z,35.73
2023-04-03T11:58:03.391Z,35.20
2023-04-03T12:00:45.793Z,34.86
2023-04-03T12:03:43.385Z,35.13
2023-04-03T12:06:37.036Z,34.94
2023-04-03T12:09:13.846Z,34.70
2023-04-03T12:11:40.859Z,35.12
2023-04-03T12:14:17.406Z,34.86
2023-04-03T12:16:47.003Z,35.33
2023-04-03T12:19:42.629Z,34.86
2023-04-03T12:22:17.378Z,34.44
2023-04-03T12:24:46.835Z,34.75
2023-04-03T12:27:31.328Z,34.63
2023-04-03T12:30:04.659Z,34.39
2023-04-03T12:33:11.951Z,34.30
2023-04-03T12:35:55.791Z,34.48
2023-04-03T12:38:35.426Z,34.36
2023-04-03T12:41:27.024Z,34.19
2023-04-03T12:44:32.532Z,34.02
2023-04-03T12:47:01.321Z,34.12
2023-04-03T12:49:35.219Z,34.30
2023-04-03T12:52:07.010Z,34.26
2023-04-03T12:54:36.556Z,34.16
2023-04-03T12:57:30.097Z,34.33
2023-04-03T12:59:57.423Z,34.08
2023-04-03T13:02:32.016Z,34.24
2023-04-03T13:05:00.632Z,34.30
2023-04-03T13:07:34.380Z,34.21
2023-04-03T13:10:07.996Z,34.06
2023-04-03T13:12:51.925Z,33.37
2023-04-03T13:15:23.739Z,33.87
2023-04-03T13:17:52.686Z,33.68
2023-04-03T13:20:21.081Z,33.82
2023-04-03T13:22:49.295Z,33.80
2023-04-03T13:25:16.489Z,33.63
2023-04-03T13:27:45.090Z,34.17
2023-04-03T13:30:38.763Z,33.51
2023-04-03T13:33:08.206Z,34.19
2023-04-03T13:35:40.059Z,34.25
2023-04-03T13:38:18.166Z,34.53
2023-04-03T13:40:55.894Z,34.67
2023-04-03T13:43:25.812Z,35.33
2023-04-03T13:46:06.579Z,34.69
2023-04-03T13:48:58.212Z,34.19
2023-04-03T13:51:29.047Z,34.22
2023-04-03T13:54:02.776Z,34.19
2023-04-03T13:56:34.020Z,34.45
2023-04-03T13:59:26.493Z,34.50
2023-04-03T14:01:55.155Z,34.76
2023-04-03T14:04:28.794Z,34.92
2023-04-03T14:06:55.751Z,35.23
2023-04-03T14:09:23.620Z,35.10
2023-04-03T14:11:51.792Z,35.06
2023-04-03T14:14:29.056Z,35.15
2023-04-03T14:16:56.919Z,35.09
2023-04-03T14:19:26.838Z,34.88
2023-04-03T14:21:54.675Z,34.80
2023-04-03T14:24:22.680Z,34.96
2023-04-03T14:26:53.510Z,34.97
2023-04-03T14:29:21.518Z,35.38
2023-04-03T14:31:49.642Z,34.58
2023-04-03T14:34:17.868Z,34.87
2023-04-03T14:36:44.985Z,35.45
2023-04-03T14:39:17.280Z,35.03
2023-04-03T14:41:44.152Z,34.87
2023-04-03T14:44:11.285Z,34.90
2023-04-03T14:46:55.551Z,34.63
2023-04-03T14:49:26.504Z,35.00
2023-04-03T14:54:59.622Z,35.06
2023-04-03T14:57:27.803Z,34.99
2023-04-03T14:59:54.964Z,34.83
2023-04-03T15:02:33.323Z,34.16
2023-04-03T15:05:01.681Z,34.49
2023-04-03T15:07:29.867Z,34.60
2023-04-03T15:09:59.669Z,34.45
2023-04-03T15:12:26.776Z,34.27
2023-04-03T15:15:01.884Z,34.84
2023-04-03T15:17:30.994Z,34.15
2023-04-03T15:19:57.816Z,34.50
2023-04-03T15:22:25.013Z,34.10
2023-04-03T15:24:51.885Z,34.03
2023-04-03T15:27:19.094Z,34.09
2023-04-03T15:29:46.026Z,34.21
2023-04-03T15:32:13.374Z,34.06
2023-04-03T15:34:40.556Z,34.19
2023-04-03T15:37:07.657Z,34.66
2023-04-03T15:39:34.507Z,34.43
2023-04-03T15:42:06.990Z,34.95
2023-04-03T15:44:35.053Z,34.69
2023-04-03T15:47:02.150Z,34.17
2023-04-03T15:49:29.020Z,34.34
2023-04-03T15:51:56.146Z,34.52
2023-04-03T15:54:25.009Z,34.87
2023-04-03T15:56:52.860Z,34.56
2023-04-03T15:59:20.001Z,34.38
2023-04-03T16:01:47.171Z,33.96
2023-04-03T16:04:15.580Z,34.16
2023-04-03T16:06:43.329Z,34.19
2023-04-03T16:09:10.190Z,34.06
2023-04-03T16:11:40.106Z,33.95
2023-04-03T16:14:10.356Z,33.90
2023-04-03T16:16:39.018Z,34.20
2023-04-03T16:19:05.983Z,34.10
2023-04-03T16:21:33.738Z,34.37
2023-04-03T16:24:00.604Z,34.49
2023-04-03T16:26:27.804Z,34.56
2023-04-03T16:28:55.126Z,34.43
2023-04-03T16:31:22.911Z,34.64
2023-04-03T16:33:49.740Z,34.46
2023-04-03T16:36:16.903Z,34.08
2023-04-03T16:38:43.679Z,34.44
2023-04-03T16:41:10.876Z,34.53
2023-04-03T16:43:37.949Z,34.63
2023-04-03T16:46:05.531Z,34.98
2023-04-03T16:48:32.465Z,34.96
2023-04-03T16:50:59.598Z,34.89
2023-04-03T16:53:27.291Z,34.98
2023-04-03T16:55:54.524Z,34.78
2023-04-03T16:58:23.405Z,35.07
2023-04-03T17:00:51.733Z,34.98
2023-04-03T17:03:18.603Z,34.77
2023-04-03T17:05:48.572Z,34.95
2023-04-03T17:08:16.806Z,35.50
2023-04-03T17:10:43.942Z,35.07
2023-04-03T17:13:10.840Z,35.21
2023-04-03T17:15:38.175Z,35.01
2023-04-03T17:18:05.626Z,35.44
2023-04-03T17:20:34.729Z,35.49
2023-04-03T17:23:01.564Z,35.15
2023-04-03T17:25:28.774Z,35.21
2023-04-03T17:27:55.645Z,35.11
2023-04-03T17:30:22.913Z,35.12
2023-04-03T17:32:49.763Z,35.27
2023-04-03T17:35:17.014Z,35.31
2023-04-03T17:37:43.802Z,35.04
2023-04-03T17:40:14.305Z,35.38
2023-04-03T17:42:41.237Z,35.55
2023-04-03T17:45:08.781Z,35.48
2023-04-03T17:47:35.782Z,35.17
2023-04-03T17:50:02.900Z,35.41
2023-04-03T17:52:31.909Z,35.33
2023-04-03T17:54:59.026Z,35.49
2023-04-03T17:57:26.005Z,34.60
2023-04-03T17:59:54.073Z,35.26
2023-04-03T18:02:21.175Z,35.43
2023-04-03T18:04:50.729Z,35.30
2023-04-03T18:07:17.523Z,35.37
2023-04-03T18:09:44.752Z,35.63
2023-04-03T18:12:11.562Z,35.31
2023-04-03T18:14:38.649Z,35.68
2023-04-03T18:17:05.492Z,35.67
2023-04-03T18:19:32.913Z,35.78
2023-04-03T18:22:19.268Z,35.69
2023-04-03T18:24:46.394Z,35.65
2023-04-03T18:27:14.512Z,35.69
2023-04-03T18:29:43.253Z,35.99
2023-04-03T18:32:10.648Z,35.43
2023-04-03T18:34:38.148Z,35.94
2023-04-03T18:37:06.032Z,35.94
2023-04-03T18:39:33.185Z,35.92
2023-04-03T18:42:03.778Z,35.88
2023-04-03T18:44:31.157Z,35.71
2023-04-03T18:46:59.935Z,35.99
2023-04-03T18:49:30.563Z,36.19
2023-04-03T18:51:57.323Z,36.00
2023-04-03T18:54:24.538Z,36.06
2023-04-03T18:56:51.433Z,35.89
2023-04-03T18:59:18.616Z,36.17
2023-04-03T19:01:45.451Z,36.06
2023-04-03T19:04:12.651Z,36.18
2023-04-03T19:06:39.616Z,36.38
2023-04-03T19:09:06.960Z,36.56
2023-04-03T19:11:34.258Z,36.41
2023-04-03T19:14:10.565Z,36.13
2023-04-03T19:16:42.007Z,36.52
2023-04-03T19:19:09.057Z,36.58
2023-04-03T19:21:40.748Z,36.41
2023-04-03T19:24:12.050Z,36.37
2023-04-03T19:26:39.305Z,36.65
2023-04-03T19:29:06.500Z,36.51
2023-04-03T19:31:34.029Z,36.48
2023-04-03T19:34:02.628Z,36.49
2023-04-03T19:36:30.476Z,36.46
2023-04-03T19:38:57.583Z,36.71
2023-04-03T19:41:25.356Z,36.53
2023-04-03T19:43:52.707Z,36.58
2023-04-03T19:46:24.611Z,36.69
2023-04-03T19:48:52.241Z,36.73
2023-04-03T19:51:19.192Z,36.43
2023-04-03T19:53:47.568Z,36.41
2023-04-03T19:56:16.624Z,36.64
2023-04-03T19:58:43.917Z,36.83
2023-04-03T20:01:11.319Z,36.76
2023-04-03T20:03:39.253Z,36.55
2023-04-03T20:06:06.153Z,36.88
2023-04-03T20:08:33.335Z,36.61
2023-04-03T20:11:00.164Z,36.88
2023-04-03T20:13:27.359Z,36.46
2023-04-03T20:15:54.180Z,36.57
2023-04-03T20:18:21.474Z,36.54
2023-04-03T20:20:55.612Z,36.63
2023-04-03T20:23:23.097Z,36.82
2023-04-03T20:26:01.549Z,36.96
2023-04-03T20:28:36.343Z,37.08
2023-04-03T20:31:03.834Z,36.82
2023-04-03T20:33:31.027Z,36.80
2023-04-03T20:35:58.150Z,36.58
2023-04-03T20:38:25.416Z,36.71
2023-04-03T20:40:52.463Z,36.96
2023-04-03T20:43:21.774Z,36.82
2023-04-03T20:45:49.365Z,37.00
2023-04-03T20:48:18.241Z,37.11
2023-04-03T20:50:45.951Z,37.11
2023-04-03T20:55:40.333Z,36.94
2023-04-03T20:58:07.751Z,36.75
2023-04-03T21:00:34.518Z,37.01
2023-04-03T21:03:01.755Z,37.01
2023-04-03T21:05:30.681Z,36.96
2023-04-03T21:08:36.002Z,36.90
2023-04-03T21:11:40.604Z,37.11
2023-04-03T21:14:46.887Z,37.24
2023-04-03T21:17:13.823Z,37.06
2023-04-03T21:19:46.095Z,37.18
2023-04-03T21:22:13.716Z,37.14
2023-04-03T21:24:41.110Z,37.33
2023-04-03T21:27:08.187Z,37.11
2023-04-03T21:29:35.283Z,37.26
2023-04-03T21:32:02.198Z,37.38
2023-04-03T21:34:30.330Z,37.60
2023-04-03T21:37:01.076Z,37.46
2023-04-03T21:39:28.459Z,37.54
2023-04-03T21:41:55.323Z,37.29
2023-04-03T21:44:22.761Z,37.42
2023-04-03T21:46:53.720Z,37.44
2023-04-03T21:49:21.523Z,37.80
2023-04-03T21:51:48.463Z,37.92
2023-04-03T21:54:15.992Z,37.52
2023-04-03T21:56:42.845Z,37.45
2023-04-03T21:59:10.143Z,37.82
2023-04-03T22:01:37.196Z,37.76
2023-04-03T22:04:04.423Z,37.47
2023-04-03T22:06:31.263Z,38.23
2023-04-03T22:08:58.482Z,37.72
2023-04-03T22:11:27.257Z,37.55
2023-04-03T22:13:55.041Z,37.58
2023-04-03T22:16:23.532Z,37.48
2023-04-03T22:18:52.130Z,37.27
2023-04-03T22:21:19.090Z,37.52
2023-04-03T22:23:46.377Z,37.52
2023-04-03T22:26:13.437Z,37.74
2023-04-03T22:28:47.012Z,37.95
2023-04-03T22:31:14.537Z,37.85
2023-04-03T22:33:42.629Z,37.69
2023-04-03T22:36:10.712Z,38.03
2023-04-03T22:38:38.961Z,37.80
2023-04-03T22:41:07.217Z,37.79
2023-04-03T22:43:35.326Z,38.24
2023-04-03T22:46:09.132Z,37.99
2023-04-03T22:48:37.285Z,37.95
2023-04-03T22:51:07.451Z,37.80
2023-04-03T22:53:35.586Z,37.94
2023-04-03T22:56:03.404Z,37.83
2023-04-03T22:58:30.564Z,38.05
2023-04-03T23:01:05.517Z,38.13
2023-04-03T23:03:32.906Z,37.92
2023-04-03T23:06:01.490Z,37.99
2023-04-03T23:08:29.639Z,37.95
2023-04-03T23:10:57.789Z,38.18
2023-04-03T23:13:25.128Z,37.81
2023-04-03T23:15:58.635Z,37.99
2023-04-03T23:18:29.629Z,38.15
2023-04-03T23:20:57.134Z,38.08
2023-04-03T23:23:24.301Z,38.09
2023-04-03T23:25:57.108Z,38.56
2023-04-03T23:28:24.700Z,38.67
2023-04-03T23:31:01.771Z,38.44
2023-04-03T23:33:30.575Z,38.70
2023-04-03T23:35:58.644Z,38.31
2023-04-03T23:38:25.943Z,38.65
2023-04-03T23:40:52.699Z,38.55
2023-04-03T23:43:19.783Z,38.45
2023-04-03T23:45:46.723Z,38.34
2023-04-03T23:48:14.137Z,38.50
2023-04-03T23:50:42.629Z,38.14
2023-04-03T23:53:09.847Z,38.54
2023-04-03T23:55:36.955Z,38.24
2023-04-03T23:58:04.105Z,38.45
